Time;durP1;ratioP1;P1;durP2;ratioP2;P2;SDS_P1;SDS_P2;PMS_P1;PMS_P2;Temp;Humidity;BMP_temperature;BMP_pressure;BME280_temperature;BME280_humidity;BME280_pressure;Samples;Min_cycle;Max_cycle;Signal;HPM_P1;HPM_P2
2021/11/04 00:00:32;;;;;;;19.57;16.03;;;;;;;7.76;78.79;98075.91;2100008;85;21364;-79
2021/11/04 00:03:34;;;;;;;18.30;14.93;;;;;;;7.76;78.62;98069.42;2087366;85;21027;-80
2021/11/04 00:06:34;;;;;;;18.77;15.30;;;;;;;7.78;78.58;98078.09;2100301;84;20999;-77
2021/11/04 00:09:35;;;;;;;50.80;16.87;;;;;;;7.80;78.66;98079.41;2100125;85;20968;-79
2021/11/04 00:12:36;;;;;;;19.83;15.33;;;;;;;7.82;78.76;98082.94;2099889;84;21012;-79
2021/11/04 00:15:36;;;;;;;19.87;16.00;;;;;;;7.82;79.16;98074.71;2099947;85;20984;-79
2021/11/04 00:18:37;;;;;;;18.23;14.47;;;;;;;7.84;78.76;98077.33;2100439;85;20975;-78
2021/11/04 00:21:37;;;;;;;17.03;15.07;;;;;;;7.86;78.75;98070.42;2100420;84;21387;-78
2021/11/04 00:24:38;;;;;;;17.73;14.10;;;;;;;7.85;78.70;98074.74;2100281;85;21367;-79
2021/11/04 00:27:38;;;;;;;20.07;15.10;;;;;;;7.83;79.05;98073.86;2100234;83;21055;-79
2021/11/04 00:30:39;;;;;;;21.40;15.70;;;;;;;7.83;78.79;98073.86;2100414;85;21007;-79
2021/11/04 00:33:39;;;;;;;17.13;14.50;;;;;;;7.82;78.66;98066.91;2100269;85;21411;-79
2021/11/04 00:36:40;;;;;;;18.83;15.97;;;;;;;7.83;78.60;98070.39;2100322;84;21015;-79
2021/11/04 00:39:40;;;;;;;16.83;14.20;;;;;;;7.87;78.67;98068.27;2100260;84;20992;-78
2021/11/04 00:42:41;;;;;;;21.03;15.70;;;;;;;7.89;78.53;98070.45;2100523;84;21000;-79
2021/11/04 00:45:41;;;;;;;38.50;16.40;;;;;;;7.89;78.48;98068.72;2100212;84;21028;-78
2021/11/04 00:48:42;;;;;;;18.13;14.37;;;;;;;7.91;78.36;98063.54;2100389;85;21015;-80
2021/11/04 00:51:42;;;;;;;20.70;15.30;;;;;;;7.94;78.51;98055.77;2100381;84;20995;-80
2021/11/04 00:54:43;;;;;;;18.30;15.30;;;;;;;7.94;78.48;98054.05;2100028;85;21028;-79
2021/11/04 00:57:43;;;;;;;16.50;14.67;;;;;;;7.95;78.41;98060.98;2099278;84;21051;-78
2021/11/04 01:00:44;;;;;;;16.60;14.80;;;;;;;7.96;78.55;98063.16;2099620;85;20992;-80
2021/11/04 01:03:45;;;;;;;20.90;14.67;;;;;;;7.96;78.91;98055.36;2099523;84;21016;-79
2021/11/04 01:06:45;;;;;;;16.80;13.97;;;;;;;7.96;78.82;98044.97;2099775;85;20980;-80
2021/11/04 01:09:46;;;;;;;18.67;14.53;;;;;;;7.95;78.93;98043.22;2100179;84;21313;-79
2021/11/04 01:12:50;;;;;;;17.23;14.00;;;;;;;7.94;79.28;98020.27;2100119;84;21016;-80
2021/11/04 01:15:49;;;;;;;19.47;13.73;;;;;;;7.95;79.58;98005.11;2099373;84;21015;-78
2021/11/04 01:18:49;;;;;;;15.37;13.20;;;;;;;7.92;79.50;98018.08;2099831;85;20976;-79
2021/11/04 01:21:50;;;;;;;17.30;14.57;;;;;;;7.91;79.90;98025.44;2100056;84;21364;-81
2021/11/04 01:24:50;;;;;;;17.93;14.40;;;;;;;7.88;80.12;98026.70;2100041;84;21344;-81
2021/11/04 01:27:51;;;;;;;17.87;14.50;;;;;;;7.84;80.60;98013.24;2099683;84;21032;-81
2021/11/04 01:30:54;;;;;;;14.63;13.13;;;;;;;7.79;80.73;98000.60;2099693;85;21044;-81
2021/11/04 01:33:54;;;;;;;14.73;12.27;;;;;;;7.73;81.61;97993.18;2099649;84;21396;-80
2021/11/04 01:36:55;;;;;;;14.70;13.03;;;;;;;7.71;81.74;97996.19;2099811;84;21011;-80
2021/11/04 01:39:55;;;;;;;16.77;13.27;;;;;;;7.67;81.52;97994.86;2100059;84;20976;-83
2021/11/04 01:42:56;;;;;;;15.70;12.07;;;;;;;7.63;82.66;97978.81;2100064;84;20969;-81
2021/11/04 01:45:56;;;;;;;18.33;13.67;;;;;;;7.60;82.47;97963.20;2100143;84;20969;-82
2021/11/04 01:48:57;;;;;;;14.57;11.90;;;;;;;7.57;82.50;97953.20;2099995;84;20968;-81
2021/11/04 01:51:57;;;;;;;17.70;12.77;;;;;;;7.54;82.95;97942.79;2099839;84;20976;-80
2021/11/04 01:54:58;;;;;;;15.17;13.03;;;;;;;7.54;82.66;97963.14;2100016;84;20944;-81
2021/11/04 01:57:58;;;;;;;16.57;12.13;;;;;;;7.58;82.44;97967.50;2099114;85;21071;-80
2021/11/04 02:00:59;;;;;;;16.87;12.73;;;;;;;7.60;82.57;97963.63;2097526;84;20949;-80
2021/11/04 02:04:00;;;;;;;15.07;12.80;;;;;;;7.62;82.49;97956.72;2097370;85;20944;-81
2021/11/04 02:07:00;;;;;;;17.40;12.60;;;;;;;7.63;82.36;97959.33;2097608;85;20956;-82
2021/11/04 02:10:01;;;;;;;19.97;12.10;;;;;;;7.65;82.54;97948.95;2097618;84;20975;-81
2021/11/04 02:13:01;;;;;;;18.53;12.50;;;;;;;7.63;82.84;97941.58;2097451;84;20980;-80
2021/11/04 02:16:02;;;;;;;14.23;11.53;;;;;;;7.62;82.87;97938.53;2097613;84;20964;-81
2021/11/04 02:19:02;;;;;;;15.57;11.50;;;;;;;7.61;82.93;97936.80;2097475;84;20984;-82
2021/11/04 02:22:03;;;;;;;17.50;12.30;;;;;;;7.60;82.41;97935.92;2097279;85;20990;-82
2021/11/04 02:25:03;;;;;;;14.07;9.93;;;;;;;7.62;82.40;97928.15;2097592;85;21000;-82
2021/11/04 02:28:04;;;;;;;14.70;11.60;;;;;;;7.64;82.44;97926.00;2097122;85;21458;-81
2021/11/04 02:31:04;;;;;;;13.93;10.53;;;;;;;7.67;82.35;97925.16;2097681;84;20964;-79
2021/11/04 02:34:05;;;;;;;14.40;11.23;;;;;;;7.71;82.17;97905.28;2097814;84;21023;-81
2021/11/04 02:37:05;;;;;;;13.60;10.40;;;;;;;7.72;82.09;97893.59;2097626;84;21012;-79
2021/11/04 02:40:06;;;;;;;17.40;10.63;;;;;;;7.78;81.68;97900.14;2097568;84;21008;-80
2021/11/04 02:43:06;;;;;;;10.60;9.50;;;;;;;7.83;81.41;97900.20;2097536;84;20984;-81
2021/11/04 02:46:07;;;;;;;11.60;9.43;;;;;;;7.88;81.17;97899.39;2097520;85;20949;-81
2021/11/04 02:49:07;;;;;;;11.40;10.20;;;;;;;7.92;80.88;97898.55;2097816;84;21336;-81
2021/11/04 02:52:08;;;;;;;13.70;9.93;;;;;;;7.97;80.66;97894.68;2097612;84;20984;-80
2021/11/04 02:55:08;;;;;;;14.70;9.43;;;;;;;8.03;80.49;97899.05;2097567;85;21003;-80
2021/11/04 02:58:09;;;;;;;10.87;8.67;;;;;;;8.08;80.40;97886.52;2086604;83;21070;-81
2021/11/04 03:01:09;;;;;;;10.53;9.07;;;;;;;8.11;79.67;97867.05;2056420;87;21003;-81
2021/11/04 03:04:10;;;;;;;10.73;8.83;;;;;;;8.17;79.79;97870.98;2056582;87;21375;-80
2021/11/04 03:07:10;;;;;;;9.27;8.27;;;;;;;8.19;79.58;97865.80;2056615;87;20995;-81
2021/11/04 03:10:11;;;;;;;11.53;9.10;;;;;;;8.20;79.05;97854.11;2056191;87;21403;-81
2021/11/04 03:13:11;;;;;;;10.03;7.93;;;;;;;8.22;78.85;97847.19;2056305;87;21003;-80
2021/11/04 03:16:12;;;;;;;9.47;8.13;;;;;;;8.27;78.87;97849.38;2055843;87;21011;-81
2021/11/04 03:19:13;;;;;;;12.80;8.40;;;;;;;8.34;78.58;97849.01;2056155;87;20956;-80
2021/11/04 03:22:13;;;;;;;9.53;7.63;;;;;;;8.37;78.43;97840.35;2056340;87;21343;-80
2021/11/04 03:25:17;;;;;;;8.27;7.43;;;;;;;8.42;78.00;97833.01;2056649;87;21352;-81
2021/11/04 03:28:16;;;;;;;9.17;7.60;;;;;;;8.46;77.61;97827.39;2055979;87;21450;-81
2021/11/04 03:31:17;;;;;;;9.50;8.13;;;;;;;8.49;77.39;97833.90;2056409;87;20987;-80
2021/11/04 03:34:17;;;;;;;11.03;7.63;;;;;;;8.51;77.36;97832.17;2056584;87;21040;-80
2021/11/04 03:37:18;;;;;;;9.97;8.07;;;;;;;8.54;76.81;97834.36;2055927;87;21023;-79
2021/11/04 03:40:19;;;;;;;11.87;8.07;;;;;;;8.55;76.66;97828.29;2056016;87;21436;-80
2021/11/04 03:43:19;;;;;;;10.67;8.03;;;;;;;8.57;76.54;97829.59;2056103;87;21379;-79
2021/11/04 03:46:20;;;;;;;14.17;8.03;;;;;;;8.60;76.42;97827.88;2056209;87;20955;-79
2021/11/04 03:49:20;;;;;;;12.57;8.47;;;;;;;8.61;76.31;97840.02;2056011;87;20995;-79
2021/11/04 03:52:21;;;;;;;10.90;8.20;;;;;;;8.62;76.07;97822.25;2056486;87;20948;-78
2021/11/04 03:55:25;;;;;;;10.93;8.90;;;;;;;8.63;76.07;97816.61;2056248;87;21059;-78
2021/11/04 03:58:23;;;;;;;13.37;8.00;;;;;;;8.61;76.00;97808.80;2067388;83;21020;-79
2021/11/04 04:01:24;;;;;;;10.67;8.00;;;;;;;8.62;75.82;97813.14;2099967;85;21364;-79
2021/11/04 04:04:25;;;;;;;13.73;8.37;;;;;;;8.62;75.86;97813.57;2100057;84;20976;-80
2021/11/04 04:07:25;;;;;;;11.40;8.27;;;;;;;8.62;76.03;97818.77;2100126;85;20968;-81
2021/11/04 04:10:26;;;;;;;13.47;8.17;;;;;;;8.61;75.80;97813.13;2100252;85;20988;-80
2021/11/04 04:13:26;;;;;;;9.73;8.27;;;;;;;8.61;75.87;97802.30;2100111;84;20948;-79
2021/11/04 04:16:27;;;;;;;10.77;8.53;;;;;;;8.58;76.01;97790.58;2099826;85;20977;-80
2021/11/04 04:19:27;;;;;;;14.70;9.47;;;;;;;8.55;76.30;97789.70;2100316;84;20992;-79
2021/11/04 04:22:28;;;;;;;13.90;8.67;;;;;;;8.49;76.77;97793.59;2100069;85;21023;-79
2021/11/04 04:25:30;;;;;;;10.23;8.17;;;;;;;8.45;77.02;97781.01;2099553;85;21023;-80
2021/11/04 04:28:30;;;;;;;11.73;8.97;;;;;;;8.40;77.89;97772.32;2099288;85;21083;-80
2021/11/04 04:31:31;;;;;;;10.30;9.30;;;;;;;8.33;78.35;97762.77;2099758;84;21356;-80
2021/11/04 04:34:32;;;;;;;10.23;8.77;;;;;;;8.27;78.68;97758.38;2099758;84;21462;-80
2021/11/04 04:37:32;;;;;;;12.37;8.93;;;;;;;8.24;78.78;97764.87;2099269;85;21055;-80
2021/11/04 04:40:33;;;;;;;10.50;8.80;;;;;;;8.21;79.31;97754.45;2099501;85;20967;-80
2021/11/04 04:43:33;;;;;;;11.20;9.40;;;;;;;8.19;79.11;97757.91;2099096;85;20976;-79
2021/11/04 04:46:34;;;;;;;12.80;9.20;;;;;;;8.18;79.33;97753.58;2099156;85;20956;-79
2021/11/04 04:49:34;;;;;;;12.20;9.90;;;;;;;8.18;79.72;97743.18;2099222;85;20944;-79
2021/11/04 04:52:35;;;;;;;11.67;9.17;;;;;;;8.17;79.86;97743.61;2099933;84;20961;-80
2021/11/04 04:55:35;;;;;;;14.20;9.50;;;;;;;8.16;80.60;97741.01;2099399;85;21004;-80
2021/11/04 04:58:36;;;;;;;12.23;9.43;;;;;;;8.13;80.53;97747.49;2098798;83;21051;-80
2021/11/04 05:01:36;;;;;;;9.77;8.20;;;;;;;8.13;81.31;97753.56;2097251;84;21027;-80
2021/11/04 05:04:37;;;;;;;11.07;9.47;;;;;;;8.12;81.89;97740.13;2096783;84;21031;-81
2021/11/04 05:07:37;;;;;;;10.90;8.60;;;;;;;8.09;81.92;97744.02;2097352;84;20988;-82
2021/11/04 05:10:38;;;;;;;12.90;10.33;;;;;;;8.10;82.07;97727.56;2097655;85;21000;-82
2021/11/04 05:13:38;;;;;;;12.63;9.63;;;;;;;8.10;82.56;97722.79;2097009;84;20978;-80
2021/11/04 05:16:39;;;;;;;12.30;9.20;;;;;;;8.10;82.49;97720.19;2097210;85;21075;-80
2021/11/04 05:19:40;;;;;;;10.13;8.50;;;;;;;8.11;83.31;97727.13;2096325;84;20999;-80
2021/11/04 05:22:40;;;;;;;9.87;8.43;;;;;;;8.10;82.92;97730.16;2096135;84;20941;-80
2021/11/04 05:25:40;;;;;;;9.47;8.00;;;;;;;8.10;84.21;97727.56;2096403;84;20948;-80
2021/11/04 05:28:41;;;;;;;10.33;8.50;;;;;;;8.10;83.67;97734.05;2095822;85;22004;-79
2021/11/04 05:31:42;;;;;;;14.40;8.50;;;;;;;8.12;83.48;97731.03;2095904;85;20940;-79
2021/11/04 05:34:42;;;;;;;12.03;8.77;;;;;;;8.15;83.76;97727.14;2096038;84;20964;-81
2021/11/04 05:37:43;;;;;;;13.93;8.60;;;;;;;8.18;83.69;97720.66;2096170;84;20992;-81
2021/11/04 05:40:44;;;;;;;14.77;8.97;;;;;;;8.19;83.76;97724.98;2096124;84;21427;-80
2021/11/04 05:43:44;;;;;;;14.23;9.10;;;;;;;8.22;83.98;97723.70;2096568;85;21423;-81
2021/11/04 05:46:45;;;;;;;12.23;9.20;;;;;;;8.25;83.91;97718.94;2096121;84;20976;-81
2021/11/04 05:49:45;;;;;;;15.23;8.87;;;;;;;8.28;83.94;97715.92;2095868;84;20945;-81
2021/11/04 05:52:46;;;;;;;9.93;8.80;;;;;;;8.29;84.25;97708.98;2096264;84;20948;-80
2021/11/04 05:55:48;;;;;;;10.10;8.57;;;;;;;8.33;84.49;97705.56;2095374;85;21391;-80
2021/11/04 05:58:49;;;;;;;14.73;8.13;;;;;;;8.34;84.68;97694.73;2086232;84;21075;-81
2021/11/04 06:01:49;;;;;;;9.80;8.03;;;;;;;8.37;84.61;97692.14;2053426;87;20963;-82
2021/11/04 06:04:50;;;;;;;10.13;8.07;;;;;;;8.40;84.67;97686.52;2054148;87;20975;-82
2021/11/04 06:07:51;;;;;;;13.80;9.77;;;;;;;8.41;85.52;97678.28;2054094;87;20994;-82
2021/11/04 06:10:51;;;;;;;11.23;9.20;;;;;;;8.44;85.37;97673.08;2054156;87;21019;-81
2021/11/04 06:13:52;;;;;;;10.67;9.30;;;;;;;8.47;85.26;97663.98;2054361;87;21699;-82
2021/11/04 06:19:55;;;;;;;10.03;7.83;;;;;;;8.50;85.77;97638.84;2028777;87;20971;-81
2021/11/04 06:22:57;;;;;;;12.93;8.47;;;;;;;8.52;85.12;97630.61;2031883;87;21343;-80
2021/11/04 06:25:58;;;;;;;10.97;7.83;;;;;;;8.54;85.03;97618.91;2055252;87;20972;-82
2021/11/04 06:32:00;;;;;;;10.83;7.80;;;;;;;8.57;85.23;97608.07;2027580;87;20983;-82
2021/11/04 06:35:01;;;;;;;9.63;7.43;;;;;;;8.56;85.21;97606.34;2054848;87;20968;-83
2021/11/04 06:38:02;;;;;;;11.93;7.40;;;;;;;8.59;84.94;97610.67;2055541;87;21442;-83
2021/11/04 06:41:02;;;;;;;11.67;7.93;;;;;;;8.60;85.14;97609.80;2056036;87;21368;-83
2021/11/04 06:44:03;;;;;;;11.93;7.43;;;;;;;8.61;85.14;97602.00;2055102;87;20963;-82
2021/11/04 06:47:03;;;;;;;9.97;7.10;;;;;;;8.65;85.06;97596.36;2055085;87;20996;-81
2021/11/04 06:50:04;;;;;;;9.80;7.77;;;;;;;8.70;84.97;97601.16;2055251;87;20983;-82
2021/11/04 06:53:07;;;;;;;11.70;7.90;;;;;;;8.75;85.05;97604.62;2054737;87;21003;-81
2021/11/04 06:56:08;;;;;;;9.37;7.90;;;;;;;8.81;84.90;97600.72;2055218;87;20994;-83
2021/11/04 06:59:09;;;;;;;9.73;7.40;;;;;;;8.84;84.83;97592.91;2065197;85;21142;-83
2021/11/04 07:02:09;;;;;;;8.57;7.37;;;;;;;8.87;84.70;97589.00;2099932;84;20948;-84
2021/11/04 07:05:13;;;;;;;10.57;6.93;;;;;;;8.91;84.71;97588.12;2099801;85;20996;-82
2021/11/04 07:08:19;;;;;;;10.10;7.13;;;;;;;8.94;84.99;97571.20;2099028;84;21036;-82
2021/11/04 07:11:14;;;;;;;16.50;9.70;;;;;;;9.01;84.50;97581.61;2099467;84;21482;-81
2021/11/04 07:14:15;;;;;;;11.23;7.80;;;;;;;9.06;84.47;97579.86;2100095;84;21001;-81
2021/11/04 07:17:16;;;;;;;8.83;7.03;;;;;;;9.11;84.14;97591.13;2099694;84;21059;-80
2021/11/04 07:20:16;;;;;;;8.77;7.10;;;;;;;9.14;84.14;97601.09;2099550;85;21368;-81
2021/11/04 07:23:17;;;;;;;8.27;6.40;;;;;;;9.18;84.15;97604.12;2099032;84;21462;-82
2021/11/04 07:26:17;;;;;;;8.60;6.33;;;;;;;9.25;83.88;97604.98;2099417;84;21016;-82
2021/11/04 07:29:20;;;;;;;11.03;7.23;;;;;;;9.31;83.78;97606.26;2099316;85;21039;-82
2021/11/04 07:32:20;;;;;;;9.23;6.50;;;;;;;9.35;83.83;97597.56;2099257;84;21015;-83
2021/11/04 07:35:21;;;;;;;10.17;7.10;;;;;;;9.41;83.53;97593.64;2100351;84;21004;-82
2021/11/04 07:38:22;;;;;;;9.50;6.63;;;;;;;9.48;83.46;97598.39;2098998;84;21384;-83
2021/11/04 07:41:22;;;;;;;9.80;6.23;;;;;;;9.54;83.32;97587.55;2099232;84;20938;-82
2021/11/04 07:44:23;;;;;;;7.70;6.53;;;;;;;9.62;83.02;97590.12;2099868;84;20952;-85
2021/11/04 07:47:24;;;;;;;8.40;6.33;;;;;;;9.68;82.81;97580.97;2100202;84;21027;-83
2021/11/04 07:50:24;;;;;;;7.47;5.73;;;;;;;9.74;82.74;97576.16;2099139;84;21016;-84
2021/11/04 07:53:25;;;;;;;7.30;6.23;;;;;;;9.78;82.50;97576.14;2099386;85;20999;-84
2021/11/04 07:59:32;;;;;;;6.93;4.90;;;;;;;9.86;82.13;97581.31;2090069;85;21062;-85
2021/11/04 08:02:33;;;;;;;9.20;6.22;;;;;;;9.92;81.94;97583.02;2106514;84;21016;-83
2021/11/04 08:05:34;;;;;;;7.43;5.53;;;;;;;9.98;81.74;97573.42;2105012;84;20991;-82
2021/11/04 08:08:35;;;;;;;8.80;5.47;;;;;;;10.04;81.64;97568.17;2105603;84;20976;-82
2021/11/04 08:11:38;;;;;;;9.38;5.97;;;;;;;10.09;81.39;97563.79;2105431;84;21002;-83
2021/11/04 08:14:39;;;;;;;8.83;5.60;;;;;;;10.15;80.95;97559.83;2105258;84;20980;-81
2021/11/04 08:17:39;;;;;;;7.77;5.27;;;;;;;10.19;80.76;97557.63;2106745;85;20960;-83
2021/11/04 08:20:40;;;;;;;7.90;4.90;;;;;;;10.24;80.66;97555.47;2106084;85;20979;-83
2021/11/04 08:23:43;;;;;;;8.50;5.43;;;;;;;10.25;80.06;97537.20;2106127;84;20967;-84
2021/11/04 08:26:44;;;;;;;7.17;6.40;;;;;;;10.27;80.34;97541.09;2105621;85;21004;-83
2021/11/04 08:29:44;;;;;;;7.30;5.73;;;;;;;10.30;80.45;97547.59;2106236;85;21070;-82
2021/11/04 08:32:45;;;;;;;8.17;5.30;;;;;;;10.35;80.27;97544.07;2106330;84;21359;-83
2021/11/04 08:35:47;;;;;;;9.07;5.73;;;;;;;10.41;80.10;97539.28;2105720;84;21020;-82
2021/11/04 08:38:49;;;;;;;7.65;4.55;;;;;;;10.46;79.80;97528.36;2105768;85;20972;-85
2021/11/04 08:41:51;;;;;;;7.10;5.00;;;;;;;10.50;79.77;97519.19;2085779;85;20948;-81
2021/11/04 08:44:52;;;;;;;11.38;5.72;;;;;;;10.52;79.90;97510.91;2105989;84;20999;-85
2021/11/04 08:47:53;;;;;;;5.62;4.80;;;;;;;10.55;80.04;97499.58;2105737;85;21019;-84
2021/11/04 08:50:54;;;;;;;8.80;4.90;;;;;;;10.56;80.10;97486.09;2106383;84;20991;-85
2021/11/04 08:53:55;;;;;;;5.57;4.77;;;;;;;10.57;79.87;97472.17;2106134;84;20988;-83
2021/11/04 08:56:57;;;;;;;8.87;4.73;;;;;;;10.59;79.70;97466.05;2106023;84;21020;-83
2021/11/04 08:59:58;;;;;;;7.07;5.20;;;;;;;10.64;79.85;97479.92;2103570;84;21031;-83
2021/11/04 09:02:59;;;;;;;8.88;4.90;;;;;;;10.68;79.74;97487.28;2099110;85;20995;-84
2021/11/04 09:06:00;;;;;;;10.10;5.20;;;;;;;10.66;79.30;97470.33;2098316;85;21416;-81
2021/11/04 09:09:03;;;;;;;9.63;4.58;;;;;;;10.64;79.33;97481.23;2098777;85;21008;-80
2021/11/04 09:12:04;;;;;;;8.00;4.67;;;;;;;10.63;79.68;97491.23;2098792;84;21055;-84
2021/11/04 09:15:05;;;;;;;7.12;5.15;;;;;;;10.60;79.85;97491.70;2098926;84;20964;-85
2021/11/04 09:18:06;;;;;;;12.68;5.55;;;;;;;10.57;80.06;97478.69;2098071;85;21039;-84
2021/11/04 09:21:08;;;;;;;6.37;5.13;;;;;;;10.52;80.48;97462.64;2098476;84;21344;-85
2021/11/04 09:24:09;;;;;;;6.95;4.67;;;;;;;10.47;80.54;97452.69;2098558;84;21670;-84
2021/11/04 09:27:10;;;;;;;6.22;4.83;;;;;;;10.47;80.68;97444.87;2098266;84;21015;-84
2021/11/04 09:30:11;;;;;;;8.10;4.93;;;;;;;10.44;80.67;97442.73;2098807;85;21016;-83
2021/11/04 09:33:14;;;;;;;11.33;6.27;;;;;;;10.42;80.41;97445.79;2098606;84;21380;-84
2021/11/04 09:36:14;;;;;;;27.43;18.57;;;;;;;10.43;80.07;97430.56;2099135;84;21075;-84
2021/11/04 09:39:16;;;;;;;11.33;6.03;;;;;;;10.51;80.00;97430.91;2099224;85;20988;-84
2021/11/04 09:42:17;;;;;;;6.67;5.40;;;;;;;10.59;79.67;97429.52;2099861;84;21043;-84
2021/11/04 09:45:18;;;;;;;8.35;4.90;;;;;;;10.65;79.29;97441.64;2099500;84;21032;-86
2021/11/04 09:48:19;;;;;;;7.47;5.30;;;;;;;10.66;78.70;97437.71;2099363;85;21744;-85
2021/11/04 09:51:20;;;;;;;6.00;4.80;;;;;;;10.66;78.78;97458.59;2098856;84;21371;-83
2021/11/04 09:54:21;;;;;;;7.17;5.03;;;;;;;10.66;78.23;97459.89;2099481;85;20995;-85
2021/11/04 09:57:22;;;;;;;8.83;5.00;;;;;;;10.68;78.40;97446.39;2098973;84;21486;-84
2021/11/04 10:00:23;;;;;;;8.60;4.83;;;;;;;10.72;77.83;97426.34;2083022;85;21438;-83
2021/11/04 10:03:24;;;;;;;7.70;4.80;;;;;;;10.78;77.85;97406.25;2055128;87;21023;-83
2021/11/04 10:06:25;;;;;;;14.75;5.72;;;;;;;10.94;77.90;97426.95;2055676;87;21401;-85
2021/11/04 10:09:27;;;;;;;7.78;5.08;;;;;;;11.14;77.81;97421.90;2055926;87;21003;-83
2021/11/04 10:15:30;;;;;;;10.90;5.65;;;;;;;11.56;75.93;97398.70;2029868;87;20963;-81
2021/11/04 10:18:32;;;;;;;5.87;4.33;;;;;;;11.74;75.42;97412.80;2055244;87;21389;-82
2021/11/04 10:21:33;;;;;;;8.95;5.60;;;;;;;11.82;74.22;97420.55;2055588;87;20977;-83
2021/11/04 10:24:34;;;;;;;9.75;5.00;;;;;;;11.88;74.42;97418.28;2055555;87;20999;-82
2021/11/04 10:27:35;;;;;;;7.67;4.83;;;;;;;11.93;74.71;97409.47;2054489;87;21398;-82
2021/11/04 10:30:40;;;;;;;6.83;4.40;;;;;;;11.95;73.88;97411.62;2054069;87;21011;-82
2021/11/04 10:33:44;;;;;;;8.50;4.85;;;;;;;11.97;73.91;97406.37;2054705;87;21371;-81
2021/11/04 10:36:45;;;;;;;6.92;4.80;;;;;;;11.98;74.05;97401.55;2054566;87;21007;-82
2021/11/04 10:39:46;;;;;;;8.28;4.92;;;;;;;12.00;73.01;97413.72;2054719;87;20947;-80
2021/11/04 10:42:47;;;;;;;6.45;4.92;;;;;;;11.99;73.72;97415.91;2054818;87;21021;-83
2021/11/04 10:45:48;;;;;;;31.70;19.45;;;;;;;11.99;73.42;97411.13;2054705;87;21633;-82
2021/11/04 10:48:49;;;;;;;10.85;6.45;;;;;;;11.98;73.58;97405.48;2054639;87;21030;-82
2021/11/04 10:51:50;;;;;;;15.45;5.12;;;;;;;11.95;73.67;97414.23;2054355;87;21415;-83
2021/11/04 10:54:51;;;;;;;7.65;5.20;;;;;;;11.95;73.59;97415.55;2054477;87;21356;-84
2021/11/04 10:57:52;;;;;;;8.08;4.70;;;;;;;11.91;73.68;97409.08;2055205;87;21167;-81
2021/11/04 11:00:53;;;;;;;9.10;4.87;;;;;;;11.89;74.07;97401.27;2074500;85;21043;-82
2021/11/04 11:03:54;;;;;;;7.58;5.35;;;;;;;11.89;74.05;97389.94;2098906;84;21059;-82
2021/11/04 11:06:55;;;;;;;6.80;5.08;;;;;;;11.88;74.26;97380.38;2099415;85;20976;-82
2021/11/04 11:09:56;;;;;;;8.68;5.55;;;;;;;11.88;74.15;97376.45;2099266;85;21431;-83
2021/11/04 11:12:57;;;;;;;8.20;4.85;;;;;;;11.90;74.36;97383.38;2099262;84;21044;-82
2021/11/04 11:15:58;;;;;;;8.40;5.75;;;;;;;11.93;74.20;97378.54;2098992;85;21011;-82
2021/11/04 11:18:59;;;;;;;7.92;5.70;;;;;;;11.98;74.21;97372.34;2099353;84;20965;-83
2021/11/04 11:22:00;;;;;;;12.28;5.80;;;;;;;12.01;73.97;97365.75;2099719;85;21027;-84
2021/11/04 11:25:01;;;;;;;8.03;5.28;;;;;;;12.03;74.30;97356.13;2099441;84;20988;-82
2021/11/04 11:28:02;;;;;;;11.75;6.35;;;;;;;12.04;73.89;97354.38;2098984;85;21502;-83
2021/11/04 11:31:03;;;;;;;10.05;6.70;;;;;;;12.06;74.41;97365.23;2099294;84;21055;-83
2021/11/04 11:34:04;;;;;;;8.75;5.92;;;;;;;12.11;74.09;97362.09;2099452;85;21379;-83
2021/11/04 11:37:05;;;;;;;7.95;5.37;;;;;;;12.12;74.18;97348.12;2098981;85;21419;-84
2021/11/04 11:40:09;;;;;;;8.53;5.90;;;;;;;12.16;74.00;97362.48;2098569;84;21309;-85
2021/11/04 11:43:14;;;;;;;10.75;5.80;;;;;;;12.18;74.06;97359.39;2098682;84;20967;-81
2021/11/04 11:46:16;;;;;;;;;;;;;;;12.22;74.31;97363.68;2101980;85;20987;-84
2021/11/04 11:49:17;;;;;;;6.62;5.70;;;;;;;12.22;74.16;97364.55;2098669;85;20264;-83
2021/11/04 11:52:18;;;;;;;7.37;5.55;;;;;;;12.24;74.41;97367.12;2098687;84;21031;-83
2021/11/04 11:55:19;;;;;;;8.90;4.95;;;;;;;12.25;74.49;97364.48;2098734;84;21444;-84
2021/11/04 11:58:24;;;;;;;7.92;5.45;;;;;;;12.28;74.25;97370.97;2098778;84;21016;-83
2021/11/04 12:01:25;;;;;;;7.85;5.00;;;;;;;12.31;74.30;97362.20;2102839;84;21105;-81
2021/11/04 12:04:26;;;;;;;8.73;5.22;;;;;;;12.38;74.07;97353.34;2105524;85;21063;-81
2021/11/04 12:07:29;;;;;;;9.28;5.50;;;;;;;12.48;73.96;97352.27;2105673;84;20975;-83
2021/11/04 12:10:30;;;;;;;6.97;5.30;;;;;;;12.61;73.76;97350.28;2106162;84;21300;-83
2021/11/04 12:13:33;;;;;;;7.42;5.10;;;;;;;12.72;73.48;97347.86;2105904;84;21026;-82
2021/11/04 12:16:34;;;;;;;8.55;5.33;;;;;;;12.81;73.36;97340.26;2105931;84;21018;-83
2021/11/04 12:19:35;;;;;;;10.80;5.85;;;;;;;12.93;73.25;97342.62;2106498;84;20991;-83
2021/11/04 12:22:38;;;;;;;11.20;6.00;;;;;;;13.01;72.99;97330.70;2105591;84;20975;-82
2021/11/04 12:25:39;;;;;;;8.93;5.00;;;;;;;13.05;72.73;97337.59;2105984;84;21091;-81
2021/11/04 12:28:40;;;;;;;6.75;4.40;;;;;;;13.08;72.53;97345.39;2105505;85;20959;-82
2021/11/04 12:31:41;;;;;;;10.98;5.40;;;;;;;13.10;72.22;97344.91;2105643;84;21023;-82
2021/11/04 12:34:42;;;;;;;6.37;4.60;;;;;;;13.10;72.59;97351.45;2105551;85;20999;-82
2021/11/04 12:37:43;;;;;;;9.05;5.45;;;;;;;13.08;72.55;97355.42;2105733;84;21733;-82
2021/11/04 12:40:46;;;;;;;5.92;4.62;;;;;;;13.06;72.78;97358.52;2105693;84;21010;-81
2021/11/04 12:43:47;;;;;;;8.83;5.22;;;;;;;13.02;73.09;97383.05;2105123;85;20956;-82
2021/11/04 12:46:48;;;;;;;11.43;4.28;;;;;;;13.03;73.29;97357.28;2105941;85;20940;-84
2021/11/04 12:49:49;;;;;;;11.45;5.00;;;;;;;13.07;73.49;97346.28;2105502;84;20968;-80
2021/11/04 12:52:50;;;;;;;9.00;5.25;;;;;;;13.16;73.39;97342.59;2104880;85;21004;-81
2021/11/04 12:55:51;;;;;;;7.08;4.53;;;;;;;13.26;73.05;97339.77;2105454;84;20972;-84
2021/11/04 12:58:53;;;;;;;7.53;4.45;;;;;;;13.31;73.23;97334.42;2105329;84;21055;-82
2021/11/04 13:01:54;;;;;;;5.83;3.85;;;;;;;13.33;73.23;97341.35;2104581;84;21059;-81
2021/11/04 13:04:55;;;;;;;5.45;4.55;;;;;;;13.35;73.26;97360.52;2104633;85;21402;-81
2021/11/04 13:07:56;;;;;;;5.97;4.58;;;;;;;13.41;73.47;97361.28;2104920;85;20959;-79
2021/11/04 13:11:01;;;;;;;5.28;4.05;;;;;;;13.42;73.44;97364.31;2105839;84;21039;-80
2021/11/04 13:14:01;;;;;;;7.55;4.55;;;;;;;13.49;73.54;97363.28;2105382;84;21657;-82
2021/11/04 13:17:02;;;;;;;5.60;4.92;;;;;;;13.64;73.41;97374.72;2104856;84;21056;-80
2021/11/04 13:20:03;;;;;;;8.48;4.22;;;;;;;14.01;73.20;97370.33;2105582;84;20980;-79
2021/11/04 13:23:04;;;;;;;6.33;4.47;;;;;;;14.37;71.54;97358.45;2105705;85;20984;-77
2021/11/04 13:26:05;;;;;;;13.03;8.53;;;;;;;14.60;71.41;97373.17;2104990;84;21697;-79
2021/11/04 13:29:07;;;;;;;7.87;5.60;;;;;;;14.69;70.32;97367.25;2105410;84;20932;-80
2021/11/04 13:32:08;;;;;;;9.15;4.70;;;;;;;14.74;70.94;97371.92;2106206;85;21062;-79
2021/11/04 13:35:11;;;;;;;6.30;4.75;;;;;;;14.70;70.35;97366.34;2105768;85;20940;-80
2021/11/04 13:38:12;;;;;;;7.20;4.70;;;;;;;14.57;70.74;97378.95;2105283;84;20991;-81
2021/11/04 13:41:13;;;;;;;8.00;4.83;;;;;;;14.45;71.02;97397.66;2105940;84;21327;-79
2021/11/04 13:44:14;;;;;;;6.78;4.80;;;;;;;14.40;71.54;97394.27;2106466;84;21008;-80
2021/11/04 13:47:15;;;;;;;9.35;6.22;;;;;;;14.45;71.78;97401.60;2106088;85;21068;-80
2021/11/04 13:50:18;;;;;;;7.92;4.97;;;;;;;14.47;71.52;97401.97;2105612;84;21347;-79
2021/11/04 13:53:19;;;;;;;6.17;4.33;;;;;;;14.44;71.50;97411.23;2105189;84;21361;-80
2021/11/04 13:56:20;;;;;;;6.20;4.30;;;;;;;14.34;71.85;97426.78;2104992;84;21050;-80
2021/11/04 13:59:21;;;;;;;6.42;4.10;;;;;;;14.27;72.03;97433.95;2104515;85;20947;-79
2021/11/04 14:02:22;;;;;;;5.87;4.47;;;;;;;14.16;72.12;97441.23;2071015;84;21019;-79
2021/11/04 14:05:23;;;;;;;9.03;4.40;;;;;;;13.96;72.49;97444.34;2053786;87;21059;-81
2021/11/04 14:08:24;;;;;;;5.30;4.15;;;;;;;13.76;72.97;97464.03;2053863;87;20976;-79
2021/11/04 14:11:25;;;;;;;7.03;4.45;;;;;;;13.63;73.59;97465.62;2053942;87;21071;-79
2021/11/04 14:14:26;;;;;;;4.42;3.67;;;;;;;13.53;73.92;97465.86;2053445;87;21043;-79
2021/11/04 14:17:27;;;;;;;8.73;4.95;;;;;;;13.44;74.27;97485.27;2053572;87;21031;-79
2021/11/04 14:20:29;;;;;;;9.30;6.25;;;;;;;13.36;74.56;97506.39;2053158;87;20994;-77